Lost Springs, Wyoming
Current Conditions -  °F | °C
As of 2:53 AM on Tuesday 21 Oct 2014 (Local Time) from KDGW Reporting Station
Clear Clear  
Wind Chill: 42°   Ceiling: Unl
Heat Index: 44°   Visibility: 9mi
Dew Point: 34°   Wind: 5mph
Humidity: 68%   Direction: 140°SE
Pressure: 29.98"   Gusts: NA
Location:  42.77°N, 104.93°W
Report Text: KDGW 210853Z AUTO 14004KT 9SM CLR 07/01 A2998 RMK AO2 SLP108 T00670011 58002
Loading
Personal Weather Stations






























Interactive Weather Map
Tropical Storm Tracking
New forecast layout! Learn more

10-Day Weather Forecast

Advertisements
Track Severe Weather on mobile